Time;durP1;ratioP1;P1;durP2;ratioP2;P2;SDS_P1;SDS_P2;PMS_P1;PMS_P2;Temp;Humidity;BMP_temperature;BMP_pressure;BME280_temperature;BME280_humidity;BME280_pressure;Samples;Min_cycle;Max_cycle;Signal;HPM_P1;HPM_P2
2023/10/12 00:00:38;;;;;;;;;;;;;;;25.00;nan;100747.75;5034685;28;19988;-92
2023/10/12 00:03:05;;;;;;;;;;;;;;;24.94;nan;100733.44;5027797;28;19918;-94
2023/10/12 00:05:32;;;;;;;;;;;;;;;24.92;nan;100734.94;5040752;28;20091;-93
2023/10/12 00:07:57;;;;;;;;;;;;;;;24.90;nan;100731.75;5038117;28;19921;-94
2023/10/12 00:10:23;;;;;;;;;;;;;;;24.88;nan;100732.09;5028603;28;19940;-91
2023/10/12 00:12:52;;;;;;;;;;;;;;;24.88;nan;100720.31;5025026;28;20325;-93
2023/10/12 00:17:57;;;;;;;;;;;;;;;24.87;nan;100718.72;5030638;28;20480;-92
2023/10/12 00:22:58;;;;;;;;;;;;;;;24.81;nan;100712.69;5032296;28;19917;-93
2023/10/12 00:25:25;;;;;;;;;;;;;;;24.81;nan;100711.91;5033469;28;19940;-95
2023/10/12 00:27:51;;;;;;;;;;;;;;;24.79;nan;100717.72;5036088;28;19917;-93
2023/10/12 00:30:17;;;;;;;;;;;;;;;24.82;nan;100713.50;5039471;28;19924;-92
2023/10/12 00:32:42;;;;;;;;;;;;;;;24.84;nan;100712.00;5031445;28;19984;-93
2023/10/12 00:35:10;;;;;;;;;;;;;;;24.83;nan;100701.38;5031303;28;20360;-92
2023/10/12 00:37:36;;;;;;;;;;;;;;;24.81;nan;100706.41;5032437;28;19929;-93
2023/10/12 00:40:22;;;;;;;;;;;;;;;24.78;nan;100707.91;5033243;28;19921;-91
2023/10/12 00:42:51;;;;;;;;;;;;;;;24.83;nan;100704.94;5031487;28;19921;-92
2023/10/12 00:45:20;;;;;;;;;;;;;;;24.83;nan;100699.44;5031881;28;19918;-91
2023/10/12 00:47:48;;;;;;;;;;;;;;;24.78;nan;100696.94;5024490;28;19925;-94
2023/10/12 00:50:14;;;;;;;;;;;;;;;24.81;nan;100699.00;5031565;28;19921;-93
2023/10/12 00:52:53;;;;;;;;;;;;;;;24.85;nan;100702.63;5027247;28;19963;-91
2023/10/12 00:55:23;;;;;;;;;;;;;;;24.86;nan;100704.22;5022752;28;20451;-91
2023/10/12 00:57:52;;;;;;;;;;;;;;;24.84;nan;100703.78;5026502;28;19917;-90
2023/10/12 01:00:18;;;;;;;;;;;;;;;24.88;nan;100701.94;5020342;28;20377;-91
2023/10/12 01:03:06;;;;;;;;;;;;;;;24.83;nan;100704.13;5023314;28;19964;-90
2023/10/12 01:05:35;;;;;;;;;;;;;;;24.88;nan;100712.09;5021578;28;19921;-91
2023/10/12 01:08:00;;;;;;;;;;;;;;;24.84;nan;100703.00;5021230;28;19922;-91
2023/10/12 01:10:31;;;;;;;;;;;;;;;24.85;nan;100710.84;5020826;28;19917;-90
2023/10/12 01:12:57;;;;;;;;;;;;;;;24.87;nan;100714.06;5020867;28;19971;-90
2023/10/12 01:15:27;;;;;;;;;;;;;;;24.89;nan;100717.25;5026445;28;20412;-89
2023/10/12 01:17:52;;;;;;;;;;;;;;;24.88;nan;100709.38;5023099;28;20383;-93
2023/10/12 01:20:25;;;;;;;;;;;;;;;24.91;nan;100728.66;5019738;28;19987;-93
2023/10/12 01:22:51;;;;;;;;;;;;;;;24.88;nan;100762.22;5023167;28;19940;-92
2023/10/12 01:25:28;;;;;;;;;;;;;;;24.74;nan;100785.63;5022614;28;19921;-95
2023/10/12 01:27:54;;;;;;;;;;;;;;;24.52;nan;100782.22;5020801;28;19987;-92
2023/10/12 01:30:23;;;;;;;;;;;;;;;24.42;nan;100768.97;5018418;28;20393;-91
2023/10/12 01:32:53;;;;;;;;;;;;;;;24.33;nan;100763.59;5020796;28;20385;-92
2023/10/12 01:35:26;;;;;;;;;;;;;;;24.31;nan;100770.53;5019294;28;19955;-95
2023/10/12 01:37:57;;;;;;;;;;;;;;;24.27;nan;100773.16;5017954;28;19944;-92
2023/10/12 01:40:26;;;;;;;;;;;;;;;24.17;nan;100768.09;5004648;28;19928;-93
2023/10/12 01:42:51;;;;;;;;;;;;;;;24.07;nan;100768.53;4999378;28;20349;-91
2023/10/12 01:47:56;;;;;;;;;;;;;;;24.05;nan;100768.06;4998257;28;19917;-92
2023/10/12 01:50:25;;;;;;;;;;;;;;;23.96;nan;100764.63;5004158;28;19932;-93
2023/10/12 01:52:56;;;;;;;;;;;;;;;23.94;nan;100766.91;5004252;28;19921;-92
2023/10/12 01:55:31;;;;;;;;;;;;;;;23.91;nan;100762.09;5002463;28;19917;-90
2023/10/12 01:57:57;;;;;;;;;;;;;;;23.88;nan;100773.69;5003012;28;19929;-93
2023/10/12 02:00:39;;;;;;;;;;;;;;;23.80;nan;100770.72;4998429;28;19921;-93
2023/10/12 02:06:04;;;;;;;;;;;;;;;23.77;nan;100778.81;5002306;28;19959;-92
2023/10/12 02:08:39;;;;;;;;;;;;;;;23.76;nan;100779.94;5002420;28;19940;-93
2023/10/12 02:11:26;;;;;;;;;;;;;;;23.74;nan;100777.53;5001350;28;19926;-91
2023/10/12 02:13:54;;;;;;;;;;;;;;;23.73;nan;100780.63;5000201;28;19917;-92
2023/10/12 02:16:24;;;;;;;;;;;;;;;23.70;nan;100794.97;5004343;28;19922;-92
2023/10/12 02:18:50;;;;;;;;;;;;;;;23.66;nan;100792.09;5002713;28;19922;-92
2023/10/12 02:21:20;;;;;;;;;;;;;;;23.60;nan;100801.63;5004737;28;20381;-92
2023/10/12 02:31:40;;;;;;;;;;;;;;;23.55;nan;100788.13;5003459;28;20370;-93
2023/10/12 02:34:06;;;;;;;;;;;;;;;23.58;nan;100786.69;5004316;28;19922;-92
2023/10/12 02:36:31;;;;;;;;;;;;;;;23.59;nan;100793.78;5002047;28;20518;-92
2023/10/12 02:39:00;;;;;;;;;;;;;;;23.61;nan;100795.03;5003723;28;19924;-92
2023/10/12 02:41:26;;;;;;;;;;;;;;;23.56;nan;100802.63;5004573;28;19991;-92
2023/10/12 02:43:55;;;;;;;;;;;;;;;23.53;nan;100795.88;5007296;28;19921;-92
2023/10/12 02:46:23;;;;;;;;;;;;;;;23.51;nan;100787.97;5005665;28;19960;-92
2023/10/12 02:48:51;;;;;;;;;;;;;;;23.53;nan;100793.16;5001612;28;19921;-91
2023/10/12 02:51:17;;;;;;;;;;;;;;;23.55;nan;100807.28;5002533;28;19928;-93
2023/10/12 02:53:44;;;;;;;;;;;;;;;23.53;nan;100798.63;5004554;28;19924;-91
2023/10/12 02:56:09;;;;;;;;;;;;;;;23.55;nan;100790.06;5005123;28;20055;-92
2023/10/12 02:58:35;;;;;;;;;;;;;;;23.52;nan;100773.22;5005764;28;19980;-92
2023/10/12 03:01:13;;;;;;;;;;;;;;;23.50;nan;100782.84;5003109;28;20093;-93
2023/10/12 03:03:39;;;;;;;;;;;;;;;23.46;nan;100790.94;5003077;28;19978;-91
2023/10/12 03:06:09;;;;;;;;;;;;;;;23.46;nan;100803.81;5004590;28;19925;-91
2023/10/12 03:08:53;;;;;;;;;;;;;;;23.49;nan;100812.13;5005486;28;19977;-91
2023/10/12 03:11:25;;;;;;;;;;;;;;;23.52;nan;100813.44;5009454;28;20013;-91
2023/10/12 03:14:00;;;;;;;;;;;;;;;23.52;nan;100816.97;5005634;28;19925;-92
2023/10/12 03:16:28;;;;;;;;;;;;;;;23.55;nan;100831.09;5006682;28;20333;-91
2023/10/12 03:19:00;;;;;;;;;;;;;;;23.49;nan;100828.53;5004572;28;20004;-91
2023/10/12 03:21:27;;;;;;;;;;;;;;;23.47;nan;100819.88;5006405;28;20016;-92
2023/10/12 03:23:56;;;;;;;;;;;;;;;23.40;nan;100824.28;5006319;28;19976;-91
2023/10/12 03:26:24;;;;;;;;;;;;;;;23.38;nan;100826.56;5006172;28;20159;-93
2023/10/12 03:28:50;;;;;;;;;;;;;;;23.28;nan;100824.19;5005890;28;19925;-90
2023/10/12 03:31:36;;;;;;;;;;;;;;;23.24;nan;100824.06;5008629;28;19924;-93
2023/10/12 03:34:01;;;;;;;;;;;;;;;23.27;nan;100806.19;5005277;28;19961;-93
2023/10/12 03:36:33;;;;;;;;;;;;;;;23.21;nan;100791.94;5008211;28;19918;-92
2023/10/12 03:41:46;;;;;;;;;;;;;;;23.12;nan;100804.84;5008151;28;20013;-90
2023/10/12 03:44:21;;;;;;;;;;;;;;;23.08;nan;100793.78;5000235;28;20293;-93
2023/10/12 03:46:56;;;;;;;;;;;;;;;22.97;nan;100803.47;5004589;28;19981;-92
2023/10/12 03:51:57;;;;;;;;;;;;;;;22.88;nan;100809.00;5004969;28;19925;-92
2023/10/12 03:54:29;;;;;;;;;;;;;;;22.91;nan;100818.44;5002617;28;19932;-91
2023/10/12 03:57:03;;;;;;;;;;;;;;;22.88;nan;100832.78;5006929;28;20016;-93
2023/10/12 03:59:43;;;;;;;;;;;;;;;22.85;nan;100830.72;5003112;28;20000;-91
2023/10/12 04:02:15;;;;;;;;;;;;;;;22.80;nan;100818.00;5008262;28;19917;-91
2023/10/12 04:04:46;;;;;;;;;;;;;;;22.81;nan;100827.81;5004399;28;19921;-91
2023/10/12 04:07:19;;;;;;;;;;;;;;;22.84;nan;100827.19;5004191;28;19918;-91
2023/10/12 04:09:51;;;;;;;;;;;;;;;22.82;nan;100832.16;5005167;28;19921;-90
2023/10/12 04:12:35;;;;;;;;;;;;;;;22.85;nan;100817.03;5009444;28;19917;-90
2023/10/12 04:15:05;;;;;;;;;;;;;;;22.77;nan;100826.03;5006204;28;20466;-89
2023/10/12 04:22:41;;;;;;;;;;;;;;;22.70;nan;100844.88;5008814;28;19931;-91
2023/10/12 04:25:13;;;;;;;;;;;;;;;22.71;nan;100830.88;5002815;28;20000;-89
2023/10/12 04:27:39;;;;;;;;;;;;;;;22.72;nan;100846.16;5008288;28;19921;-90
2023/10/12 04:33:15;;;;;;;;;;;;;;;22.70;nan;100839.41;5016015;28;19976;-90
2023/10/12 04:38:22;;;;;;;;;;;;;;;22.63;nan;100833.66;5003746;28;19924;-90
2023/10/12 04:43:36;;;;;;;;;;;;;;;22.53;nan;100840.28;5005995;28;19932;-89
2023/10/12 04:46:16;;;;;;;;;;;;;;;22.52;nan;100850.38;5004945;28;19952;-90
2023/10/12 04:48:41;;;;;;;;;;;;;;;22.54;nan;100859.06;5002106;28;19976;-90
2023/10/12 04:51:07;;;;;;;;;;;;;;;22.55;nan;100862.59;5006511;28;20357;-90
2023/10/12 04:53:53;;;;;;;;;;;;;;;22.52;nan;100864.03;5001281;28;19921;-90
2023/10/12 04:56:18;;;;;;;;;;;;;;;22.58;nan;100867.38;5005948;28;19917;-90
2023/10/12 04:58:56;;;;;;;;;;;;;;;22.59;nan;100856.13;5003542;28;19918;-91
2023/10/12 05:01:29;;;;;;;;;;;;;;;22.63;nan;100869.97;5002105;28;19975;-90
2023/10/12 05:04:19;;;;;;;;;;;;;;;22.55;nan;100874.31;5005964;28;20174;-90
2023/10/12 05:07:10;;;;;;;;;;;;;;;22.51;nan;100880.75;5001223;28;19925;-90
2023/10/12 05:09:32;;;;;;;;;;;;;;;22.55;nan;100874.31;5000542;28;20024;-90
2023/10/12 05:11:58;;;;;;;;;;;;;;;22.53;nan;100894.88;5002695;28;19999;-90
2023/10/12 05:14:24;;;;;;;;;;;;;;;22.52;nan;100902.28;5003485;28;19981;-91
2023/10/12 05:16:51;;;;;;;;;;;;;;;22.53;nan;100897.59;5005521;28;20393;-90
2023/10/12 05:19:16;;;;;;;;;;;;;;;22.49;nan;100905.66;4999670;28;19960;-90
2023/10/12 05:21:43;;;;;;;;;;;;;;;22.47;nan;100901.66;5003124;28;19960;-91
2023/10/12 05:24:09;;;;;;;;;;;;;;;22.44;nan;100900.38;5002055;28;19921;-91
2023/10/12 05:26:35;;;;;;;;;;;;;;;22.45;nan;100903.91;5003463;28;19928;-92
2023/10/12 05:29:26;;;;;;;;;;;;;;;22.40;nan;100915.78;5008006;28;19921;-93
2023/10/12 05:32:18;;;;;;;;;;;;;;;22.37;nan;100919.16;5014829;28;19925;-92
2023/10/12 05:34:45;;;;;;;;;;;;;;;22.31;nan;100929.44;5008220;28;20012;-93
2023/10/12 05:39:47;;;;;;;;;;;;;;;22.20;nan;100925.41;5007650;28;19918;-94
2023/10/12 05:45:27;;;;;;;;;;;;;;;22.10;nan;100919.50;5032574;28;19921;-96
2023/10/12 05:48:27;;;;;;;;;;;;;;;;;;;;;
2023/10/12 06:24:54;;;;;;;;;;;;;;;21.35;nan;101077.56;684949;22;20828;-91
2023/10/12 06:29:45;;;;;;;;;;;;;;;21.11;nan;101061.53;5020165;28;20088;-93
2023/10/12 06:32:17;;;;;;;;;;;;;;;20.98;nan;101070.56;5019345;28;19917;-92
2023/10/12 06:34:42;;;;;;;;;;;;;;;20.96;nan;101077.44;5017810;28;19921;-93
2023/10/12 06:37:30;;;;;;;;;;;;;;;20.94;nan;101080.50;5017702;28;19990;-91
2023/10/12 06:40:37;;;;;;;;;;;;;;;20.89;nan;101091.50;5017059;28;19924;-92
2023/10/12 06:45:51;;;;;;;;;;;;;;;20.84;nan;101101.72;5022719;28;19970;-90
2023/10/12 06:51:12;;;;;;;;;;;;;;;20.61;nan;101106.31;5019050;28;19917;-90
2023/10/12 06:53:40;;;;;;;;;;;;;;;20.64;nan;101120.13;5024393;28;19928;-92
2023/10/12 06:59:07;;;;;;;;;;;;;;;20.75;nan;101131.59;5029115;28;19925;-90
2023/10/12 07:01:37;;;;;;;;;;;;;;;20.78;nan;101134.50;5026233;28;20424;-90
2023/10/12 07:04:06;;;;;;;;;;;;;;;20.78;nan;101147.31;5026843;28;20008;-91
2023/10/12 07:06:31;;;;;;;;;;;;;;;20.80;nan;101143.16;5025257;28;19932;-91
2023/10/12 07:08:57;;;;;;;;;;;;;;;20.82;nan;101151.03;5025731;28;19937;-91
2023/10/12 07:11:30;;;;;;;;;;;;;;;20.80;nan;101151.34;5022794;28;19917;-91
2023/10/12 07:13:56;;;;;;;;;;;;;;;20.83;nan;101154.59;5028173;28;20047;-90
2023/10/12 07:16:22;;;;;;;;;;;;;;;20.88;nan;101159.91;5026627;28;19917;-90
2023/10/12 07:18:49;;;;;;;;;;;;;;;20.93;nan;101170.69;5026966;28;20354;-89
2023/10/12 07:21:21;;;;;;;;;;;;;;;20.96;nan;101170.88;5024699;28;19917;-90
2023/10/12 07:23:53;;;;;;;;;;;;;;;21.00;nan;101171.06;5025111;28;19921;-90
2023/10/12 07:26:19;;;;;;;;;;;;;;;21.01;nan;101181.66;5027458;28;19917;-90
2023/10/12 07:28:49;;;;;;;;;;;;;;;20.97;nan;101185.28;5027249;28;19921;-89
2023/10/12 07:36:35;;;;;;;;;;;;;;;20.86;nan;101173.03;5023628;28;19927;-89
2023/10/12 07:41:56;;;;;;;;;;;;;;;20.90;nan;101188.44;5029589;28;19987;-90
2023/10/12 07:44:22;;;;;;;;;;;;;;;20.94;nan;101199.53;5023665;28;19921;-90
2023/10/12 07:46:48;;;;;;;;;;;;;;;20.97;nan;101210.63;5023199;28;20016;-91
2023/10/12 07:52:21;;;;;;;;;;;;;;;21.09;nan;101212.81;5021281;28;20498;-91
2023/10/12 07:54:48;;;;;;;;;;;;;;;21.19;nan;101217.25;5023277;28;20004;-90
2023/10/12 07:57:14;;;;;;;;;;;;;;;21.28;nan;101213.47;5027017;28;19925;-90
2023/10/12 07:59:49;;;;;;;;;;;;;;;21.26;nan;101213.00;5022367;28;20424;-91
2023/10/12 08:02:15;;;;;;;;;;;;;;;21.26;nan;101214.91;5021786;28;20377;-92
2023/10/12 08:04:57;;;;;;;;;;;;;;;21.28;nan;101224.38;5019521;28;19925;-91
2023/10/12 08:07:26;;;;;;;;;;;;;;;21.30;nan;101230.34;5024661;28;19927;-91
2023/10/12 08:09:51;;;;;;;;;;;;;;;21.40;nan;101235.56;5022466;28;20377;-92
2023/10/12 08:12:26;;;;;;;;;;;;;;;21.49;nan;101221.16;5024244;28;19932;-91
2023/10/12 08:15:09;;;;;;;;;;;;;;;21.59;nan;101229.13;5021499;28;20365;-93
2023/10/12 08:17:34;;;;;;;;;;;;;;;21.55;nan;101225.41;5023343;28;19927;-91
2023/10/12 08:22:46;;;;;;;;;;;;;;;21.57;nan;101229.44;5017256;28;19975;-92
2023/10/12 08:25:11;;;;;;;;;;;;;;;21.61;nan;101240.50;5020787;28;20001;-92
2023/10/12 08:27:52;;;;;;;;;;;;;;;21.63;nan;101239.09;5022403;28;19975;-92
2023/10/12 08:30:28;;;;;;;;;;;;;;;21.67;nan;101244.72;5021509;28;19922;-93
2023/10/12 08:33:09;;;;;;;;;;;;;;;21.70;nan;101255.00;5024116;28;19921;-92
2023/10/12 08:38:32;;;;;;;;;;;;;;;21.77;nan;101266.31;5022420;28;19947;-92
2023/10/12 08:41:20;;;;;;;;;;;;;;;21.83;nan;101266.97;5021189;28;19929;-91
2023/10/12 08:43:48;;;;;;;;;;;;;;;21.84;nan;101265.84;5021913;28;20270;-92
2023/10/12 08:46:48;;;;;;;;;;;;;;;21.88;nan;101267.63;5026637;28;19940;-92
2023/10/12 08:49:52;;;;;;;;;;;;;;;21.95;nan;101268.03;5022822;28;19922;-92
2023/10/12 08:52:04;;;;;;;;;;;;;;;21.99;nan;101274.47;5023064;28;19992;-92
2023/10/12 08:54:35;;;;;;;;;;;;;;;21.95;nan;101276.22;5021376;28;20020;-92
2023/10/12 08:57:02;;;;;;;;;;;;;;;21.97;nan;101282.16;5021170;28;19940;-92
2023/10/12 08:59:29;;;;;;;;;;;;;;;22.05;nan;101285.25;5021101;28;19926;-93
2023/10/12 09:02:03;;;;;;;;;;;;;;;22.08;nan;101284.63;5019919;28;19983;-92
2023/10/12 09:04:29;;;;;;;;;;;;;;;22.14;nan;101280.69;5016275;28;19925;-91
2023/10/12 09:06:56;;;;;;;;;;;;;;;22.11;nan;101287.56;5021523;28;20090;-94
2023/10/12 09:12:23;;;;;;;;;;;;;;;22.18;nan;101292.56;5023026;28;19984;-93
2023/10/12 09:14:54;;;;;;;;;;;;;;;22.21;nan;101276.38;5016407;28;19921;-93
2023/10/12 09:17:30;;;;;;;;;;;;;;;22.22;nan;101283.44;5017253;28;20100;-93
2023/10/12 09:20:12;;;;;;;;;;;;;;;22.22;nan;101277.97;5017655;28;19932;-94
2023/10/12 09:22:37;;;;;;;;;;;;;;;22.21;nan;101281.03;5024174;28;19925;-94
2023/10/12 09:25:05;;;;;;;;;;;;;;;22.24;nan;101277.66;5023124;28;20429;-94
2023/10/12 09:27:36;;;;;;;;;;;;;;;22.23;nan;101285.03;5024555;28;20357;-94
2023/10/12 09:30:03;;;;;;;;;;;;;;;22.20;nan;101279.41;5021394;28;20040;-94
2023/10/12 09:32:32;;;;;;;;;;;;;;;22.20;nan;101285.69;5021756;28;19917;-95
2023/10/12 09:35:13;;;;;;;;;;;;;;;22.23;nan;101287.78;5024351;28;19921;-95
2023/10/12 09:37:45;;;;;;;;;;;;;;;22.28;nan;101295.03;5029778;28;19920;-95
2023/10/12 09:43:43;;;;;;;;;;;;;;;22.21;nan;101297.41;5036811;28;19971;-96
2023/10/12 17:28:16;;;;;;;;;;;;;;;20.93;nan;101437.63;4983214;28;20276;-95
2023/10/12 17:30:46;;;;;;;;;;;;;;;20.81;nan;101435.38;4986560;28;19926;-93
2023/10/12 17:33:13;;;;;;;;;;;;;;;20.75;nan;101431.94;4987674;28;19921;-93
2023/10/12 17:35:39;;;;;;;;;;;;;;;20.69;nan;101430.44;4989372;28;19944;-94
2023/10/12 17:38:05;;;;;;;;;;;;;;;20.63;nan;101428.88;4984078;28;19996;-94
2023/10/12 17:40:31;;;;;;;;;;;;;;;20.59;nan;101430.59;4987570;28;20009;-94
2023/10/12 17:42:57;;;;;;;;;;;;;;;20.56;nan;101433.91;4985433;28;20063;-94
2023/10/12 17:45:22;;;;;;;;;;;;;;;20.49;nan;101438.94;4985760;28;19928;-95
2023/10/12 17:47:49;;;;;;;;;;;;;;;20.31;nan;101442.47;4985557;28;20368;-94
2023/10/12 17:50:19;;;;;;;;;;;;;;;20.19;nan;101440.19;4982906;28;19926;-95
2023/10/12 17:52:45;;;;;;;;;;;;;;;20.14;nan;101457.41;4982206;28;20028;-96
2023/10/12 17:55:16;;;;;;;;;;;;;;;20.09;nan;101448.50;4986376;28;20652;-93
2023/10/12 17:57:42;;;;;;;;;;;;;;;19.96;nan;101451.97;4987028;28;19947;-95
2023/10/12 18:00:09;;;;;;;;;;;;;;;19.85;nan;101459.47;4989912;28;20052;-94
2023/10/12 18:02:35;;;;;;;;;;;;;;;19.77;nan;101460.13;4985735;28;19921;-94
2023/10/12 18:05:00;;;;;;;;;;;;;;;19.72;nan;101462.88;4981066;28;20004;-96
2023/10/12 18:07:26;;;;;;;;;;;;;;;19.66;nan;101466.78;4981241;28;20405;-95
2023/10/12 18:09:52;;;;;;;;;;;;;;;19.62;nan;101458.41;4978484;28;19936;-94
2023/10/12 18:12:18;;;;;;;;;;;;;;;19.60;nan;101463.34;4977663;28;19922;-94
2023/10/12 18:14:43;;;;;;;;;;;;;;;19.53;nan;101466.34;4980940;28;19983;-96
2023/10/12 18:17:09;;;;;;;;;;;;;;;19.49;nan;101464.50;4982788;28;19922;-95
2023/10/12 18:19:34;;;;;;;;;;;;;;;19.42;nan;101478.47;4980478;28;20084;-95
2023/10/12 18:22:00;;;;;;;;;;;;;;;19.37;nan;101466.81;4980371;28;19929;-95
2023/10/12 18:24:25;;;;;;;;;;;;;;;19.32;nan;101478.56;4990653;28;19921;-93
2023/10/12 18:26:50;;;;;;;;;;;;;;;19.26;nan;101477.81;4987556;28;19918;-95
2023/10/12 18:29:16;;;;;;;;;;;;;;;19.23;nan;101485.75;4981739;28;19979;-94
2023/10/12 18:31:41;;;;;;;;;;;;;;;19.15;nan;101473.59;4981173;28;19917;-95
2023/10/12 18:34:10;;;;;;;;;;;;;;;19.10;nan;101464.69;4980423;28;20043;-93
2023/10/12 18:36:35;;;;;;;;;;;;;;;19.01;nan;101461.78;4978379;28;20025;-94
2023/10/12 18:39:01;;;;;;;;;;;;;;;18.97;nan;101458.81;4980256;28;20004;-96
2023/10/12 18:41:28;;;;;;;;;;;;;;;18.97;nan;101463.44;4979490;28;19921;-94
2023/10/12 18:43:54;;;;;;;;;;;;;;;18.90;nan;101463.81;4982199;28;20118;-95
2023/10/12 18:46:24;;;;;;;;;;;;;;;18.82;nan;101460.88;4981692;28;19956;-94
2023/10/12 18:48:49;;;;;;;;;;;;;;;18.75;nan;101469.38;4982571;28;19932;-94
2023/10/12 18:51:22;;;;;;;;;;;;;;;18.71;nan;101471.84;4985470;28;19926;-95
2023/10/12 18:53:50;;;;;;;;;;;;;;;18.66;nan;101474.56;4979195;28;19922;-94
2023/10/12 18:56:16;;;;;;;;;;;;;;;18.62;nan;101478.94;4992336;28;19967;-95
2023/10/12 18:58:42;;;;;;;;;;;;;;;18.62;nan;101478.13;4989982;28;19968;-95
2023/10/12 19:01:09;;;;;;;;;;;;;;;18.62;nan;101478.13;4984058;28;19955;-94
2023/10/12 19:03:35;;;;;;;;;;;;;;;18.57;nan;101473.56;4983596;28;19926;-92
2023/10/12 19:06:04;;;;;;;;;;;;;;;18.54;nan;101473.31;4980441;28;20012;-94
2023/10/12 19:08:31;;;;;;;;;;;;;;;18.52;nan;101478.22;4981429;28;19927;-93
2023/10/12 19:10:58;;;;;;;;;;;;;;;18.46;nan;101482.03;4981422;28;20693;-94
2023/10/12 19:13:23;;;;;;;;;;;;;;;18.38;nan;101472.63;4980247;28;20084;-94
2023/10/12 19:15:49;;;;;;;;;;;;;;;18.35;nan;101475.91;4982044;28;19980;-93
2023/10/12 19:18:16;;;;;;;;;;;;;;;18.33;nan;101478.91;4985142;28;19926;-94
2023/10/12 19:20:42;;;;;;;;;;;;;;;18.31;nan;101482.97;4984427;28;19929;-93
2023/10/12 19:23:08;;;;;;;;;;;;;;;18.27;nan;101466.44;4981082;28;19969;-93
2023/10/12 19:25:33;;;;;;;;;;;;;;;18.23;nan;101478.97;4980804;28;19977;-91
2023/10/12 19:28:03;;;;;;;;;;;;;;;18.17;nan;101477.38;4977004;28;20520;-93
2023/10/12 19:30:29;;;;;;;;;;;;;;;18.05;nan;101480.41;4984853;28;20333;-92
2023/10/12 19:32:55;;;;;;;;;;;;;;;17.91;nan;101479.41;4979090;28;19918;-93
2023/10/12 19:35:20;;;;;;;;;;;;;;;17.79;nan;101479.75;4984744;28;20013;-92
2023/10/12 19:37:45;;;;;;;;;;;;;;;17.74;nan;101482.47;4982040;28;19934;-93
2023/10/12 19:40:16;;;;;;;;;;;;;;;17.73;nan;101482.75;4980614;28;19925;-92
2023/10/12 19:42:44;;;;;;;;;;;;;;;17.75;nan;101492.22;4981245;28;19926;-92
2023/10/12 19:45:11;;;;;;;;;;;;;;;17.76;nan;101487.59;4982906;28;19957;-92
2023/10/12 19:47:37;;;;;;;;;;;;;;;17.76;nan;101488.41;4985906;28;19968;-92
2023/10/12 19:50:02;;;;;;;;;;;;;;;17.73;nan;101494.41;4982623;28;19934;-92
2023/10/12 19:52:29;;;;;;;;;;;;;;;17.71;nan;101504.72;4980960;28;20306;-92
2023/10/12 19:54:57;;;;;;;;;;;;;;;17.68;nan;101502.56;4985960;28;20537;-93
2023/10/12 19:57:28;;;;;;;;;;;;;;;17.63;nan;101507.97;4979710;28;19922;-94
2023/10/12 19:59:54;;;;;;;;;;;;;;;17.58;nan;101504.44;4985142;28;19930;-91
2023/10/12 20:02:21;;;;;;;;;;;;;;;17.56;nan;101506.63;4981898;28;19930;-92
2023/10/12 20:04:47;;;;;;;;;;;;;;;17.52;nan;101509.09;4981910;28;19949;-93
2023/10/12 20:07:12;;;;;;;;;;;;;;;17.48;nan;101500.72;4980382;28;20378;-92
2023/10/12 20:09:38;;;;;;;;;;;;;;;17.45;nan;101497.75;4980202;28;19973;-92
2023/10/12 20:12:05;;;;;;;;;;;;;;;17.42;nan;101493.69;4985221;28;19922;-92
2023/10/12 20:14:32;;;;;;;;;;;;;;;17.37;nan;101499.09;4982817;28;19928;-93
2023/10/12 20:16:57;;;;;;;;;;;;;;;17.33;nan;101510.78;4982891;28;19949;-91
2023/10/12 20:19:24;;;;;;;;;;;;;;;17.30;nan;101505.91;4983389;28;20298;-92
2023/10/12 20:21:50;;;;;;;;;;;;;;;17.25;nan;101514.84;4980930;28;19985;-94
2023/10/12 20:24:15;;;;;;;;;;;;;;;17.20;nan;101512.13;4981452;28;19988;-92
2023/10/12 20:26:42;;;;;;;;;;;;;;;17.17;nan;101509.97;4982986;28;19961;-94
2023/10/12 20:29:07;;;;;;;;;;;;;;;17.16;nan;101511.88;4983802;28;19976;-92
2023/10/12 20:31:33;;;;;;;;;;;;;;;17.14;nan;101511.34;4983425;28;19993;-93
2023/10/12 20:33:59;;;;;;;;;;;;;;;17.10;nan;101506.75;4981642;28;19929;-92
2023/10/12 20:36:26;;;;;;;;;;;;;;;17.07;nan;101510.00;4982676;28;19968;-93
2023/10/12 20:38:52;;;;;;;;;;;;;;;17.02;nan;101510.81;4983073;28;19953;-93
2023/10/12 20:41:22;;;;;;;;;;;;;;;16.94;nan;101500.53;4980964;28;19953;-93
2023/10/12 20:43:47;;;;;;;;;;;;;;;16.90;nan;101503.00;4980432;28;19930;-92
2023/10/12 20:46:13;;;;;;;;;;;;;;;16.87;nan;101500.81;4983724;28;20790;-93
2023/10/12 20:48:39;;;;;;;;;;;;;;;16.84;nan;101505.94;4979887;28;19926;-91
2023/10/12 20:51:05;;;;;;;;;;;;;;;16.81;nan;101511.91;4979755;28;19933;-92
2023/10/12 20:53:33;;;;;;;;;;;;;;;16.78;nan;101515.16;4980968;28;19922;-91
2023/10/12 20:56:19;;;;;;;;;;;;;;;16.73;nan;101518.69;4982957;28;19939;-92
2023/10/12 20:58:45;;;;;;;;;;;;;;;16.71;nan;101518.16;4978324;28;19972;-94
2023/10/12 21:01:26;;;;;;;;;;;;;;;16.73;nan;101505.16;4980054;28;19972;-92
2023/10/12 21:03:56;;;;;;;;;;;;;;;16.71;nan;101506.50;4977116;28;19922;-93
2023/10/12 21:06:30;;;;;;;;;;;;;;;16.68;nan;101515.16;4984154;28;19918;-92
2023/10/12 21:09:12;;;;;;;;;;;;;;;16.63;nan;101513.22;4983123;28;19926;-92
2023/10/12 21:11:45;;;;;;;;;;;;;;;16.59;nan;101510.25;4982755;28;19976;-93
2023/10/12 21:14:16;;;;;;;;;;;;;;;16.56;nan;101524.31;4978318;28;20024;-93
2023/10/12 21:16:49;;;;;;;;;;;;;;;16.55;nan;101519.19;4978382;28;19925;-91
2023/10/12 21:19:17;;;;;;;;;;;;;;;16.55;nan;101513.78;4978281;28;19976;-92
2023/10/12 21:21:43;;;;;;;;;;;;;;;16.52;nan;101523.25;4983940;28;19929;-93
2023/10/12 21:24:18;;;;;;;;;;;;;;;16.49;nan;101506.72;4978093;28;20282;-94
2023/10/12 21:26:46;;;;;;;;;;;;;;;16.45;nan;101506.44;4983005;28;19972;-92
2023/10/12 21:29:12;;;;;;;;;;;;;;;16.44;nan;101499.41;4977804;28;19937;-94
2023/10/12 21:31:38;;;;;;;;;;;;;;;16.39;nan;101502.13;4982284;28;19928;-92
2023/10/12 21:34:06;;;;;;;;;;;;;;;16.33;nan;101503.97;4991520;28;20004;-92
2023/10/12 21:36:32;;;;;;;;;;;;;;;16.27;nan;101494.25;4983071;28;19929;-92
2023/10/12 21:38:57;;;;;;;;;;;;;;;16.22;nan;101491.53;4976227;28;19937;-92
2023/10/12 21:41:33;;;;;;;;;;;;;;;16.21;nan;101495.31;4982211;28;19922;-92
2023/10/12 21:44:03;;;;;;;;;;;;;;;16.19;nan;101494.78;4988400;28;19921;-91
2023/10/12 21:46:29;;;;;;;;;;;;;;;16.14;nan;101502.88;4980998;28;19957;-92
2023/10/12 21:48:56;;;;;;;;;;;;;;;16.05;nan;101501.78;4982701;28;20012;-92
2023/10/12 21:51:23;;;;;;;;;;;;;;;16.02;nan;101502.31;4979211;28;20261;-93
2023/10/12 21:53:53;;;;;;;;;;;;;;;16.00;nan;101507.97;4983932;28;19918;-93
2023/10/12 21:56:18;;;;;;;;;;;;;;;15.96;nan;101496.06;4979459;28;19922;-92
2023/10/12 21:58:45;;;;;;;;;;;;;;;15.95;nan;101486.31;4980341;28;19921;-91
2023/10/12 22:01:15;;;;;;;;;;;;;;;15.94;nan;101492.81;4982165;28;19928;-92
2023/10/12 22:03:41;;;;;;;;;;;;;;;15.95;nan;101499.03;4983779;28;19929;-93
2023/10/12 22:06:11;;;;;;;;;;;;;;;15.95;nan;101507.13;4984902;28;20286;-93
2023/10/12 22:08:36;;;;;;;;;;;;;;;15.90;nan;101510.63;4980309;28;20502;-91
2023/10/12 22:11:04;;;;;;;;;;;;;;;15.88;nan;101515.50;4980165;28;19934;-93
2023/10/12 22:13:48;;;;;;;;;;;;;;;15.90;nan;101515.22;4980580;28;20531;-93
2023/10/12 22:16:21;;;;;;;;;;;;;;;15.88;nan;101504.69;4979093;28;20021;-93
2023/10/12 22:18:50;;;;;;;;;;;;;;;15.85;nan;101502.53;4979450;28;19918;-91
2023/10/12 22:21:16;;;;;;;;;;;;;;;15.84;nan;101502.78;4981446;28;19926;-92
2023/10/12 22:23:41;;;;;;;;;;;;;;;15.76;nan;101500.59;4980565;28;19918;-93
2023/10/12 22:26:08;;;;;;;;;;;;;;;15.68;nan;101497.31;4980878;28;19921;-92
2023/10/12 22:28:35;;;;;;;;;;;;;;;15.67;nan;101500.28;4982686;28;19918;-93
2023/10/12 22:31:03;;;;;;;;;;;;;;;15.68;nan;101500.03;4982705;28;19925;-91
2023/10/12 22:33:29;;;;;;;;;;;;;;;15.71;nan;101498.69;4978359;28;19928;-92
2023/10/12 22:35:55;;;;;;;;;;;;;;;15.66;nan;101510.28;4981609;28;20378;-92
2023/10/12 22:38:21;;;;;;;;;;;;;;;15.63;nan;101515.41;4981228;28;20178;-93
2023/10/12 22:40:46;;;;;;;;;;;;;;;15.53;nan;101520.72;4983156;28;19922;-92
2023/10/12 22:43:11;;;;;;;;;;;;;;;15.50;nan;101518.53;4979106;28;19933;-93